Terminal Aerodrome Forecast
Issued by NWS

Home | Current Version | Previous Version | Text Only | Print | Product List | Glossary On
Versions: 1 2 3 4 5 6 7 8 9 10 11 12 13 14 15
000
FTUS45 KSLC 250520
TAFBCE
TAF
KBCE 250520Z 2506/2606 23005KT P6SM SKC
     FM251700 18013G21KT P6SM SCT080
     FM260300 27007KT P6SM SCT080=

USA.gov is the U.S. government's official web portal to all federal, state and local government web resources and services.